Time;durP1;ratioP1;P1;durP2;ratioP2;P2;SDS_P1;SDS_P2;PMS_P1;PMS_P2;Temp;Humidity;BMP_temperature;BMP_pressure;BME280_temperature;BME280_humidity;BME280_pressure;Samples;Min_cycle;Max_cycle;Signal;HPM_P1;HPM_P2
2022/04/20 00:00:36;;;;;;;2.80;1.63;;;15.20;83.10;;;;;;5039015;28;20025;-92
2022/04/20 00:03:03;;;;;;;2.25;1.50;;;15.10;83.00;;;;;;5055802;28;20559;-92
2022/04/20 00:05:33;;;;;;;2.58;1.73;;;15.10;83.20;;;;;;5038653;28;20464;-92
2022/04/20 00:08:03;;;;;;;3.80;1.67;;;15.10;83.20;;;;;;5055809;28;20025;-93
2022/04/20 00:10:29;;;;;;;4.28;1.75;;;15.10;83.10;;;;;;5055587;28;20091;-93
2022/04/20 00:12:56;;;;;;;3.95;1.85;;;15.10;83.00;;;;;;5037855;28;20035;-92
2022/04/20 00:15:22;;;;;;;6.53;1.85;;;15.00;83.40;;;;;;5037877;28;20503;-93
2022/04/20 00:17:48;;;;;;;3.65;1.67;;;15.00;83.30;;;;;;5055518;28;20053;-93
2022/04/20 00:20:14;;;;;;;4.75;1.55;;;15.00;83.40;;;;;;5038691;28;20053;-93
2022/04/20 00:22:39;;;;;;;6.53;1.92;;;15.00;83.50;;;;;;5038399;28;20049;-93
2022/04/20 00:25:05;;;;;;;3.00;1.85;;;15.00;83.40;;;;;;5038618;28;20120;-93
2022/04/20 00:27:38;;;;;;;2.13;1.42;;;15.00;83.30;;;;;;5038700;28;20028;-93
2022/04/20 00:30:08;;;;;;;4.95;1.70;;;15.00;83.60;;;;;;5038280;28;20166;-93
2022/04/20 00:32:34;;;;;;;3.38;1.70;;;15.00;83.40;;;;;;5056512;28;20071;-92
2022/04/20 00:35:00;;;;;;;4.97;1.65;;;15.00;83.40;;;;;;5038243;28;20017;-92
2022/04/20 00:37:27;;;;;;;4.70;1.80;;;14.90;83.40;;;;;;5038547;28;20120;-93
2022/04/20 00:39:53;;;;;;;2.20;1.58;;;14.90;84.20;;;;;;5055597;28;20025;-93
2022/04/20 00:42:22;;;;;;;4.05;2.03;;;14.90;83.50;;;;;;5055774;28;20025;-92
2022/04/20 00:44:49;;;;;;;2.72;1.70;;;14.90;83.40;;;;;;5055705;28;20075;-92
2022/04/20 00:47:16;;;;;;;3.05;1.67;;;14.90;83.50;;;;;;5038152;28;20029;-92
2022/04/20 00:49:43;;;;;;;2.67;1.70;;;14.90;83.60;;;;;;5037122;28;20025;-93
2022/04/20 00:52:09;;;;;;;3.35;1.80;;;14.80;83.50;;;;;;5037838;28;20115;-92
2022/04/20 00:54:34;;;;;;;2.63;1.70;;;14.80;83.60;;;;;;5055542;28;20052;-92
2022/04/20 00:57:00;;;;;;;2.22;1.50;;;14.80;83.60;;;;;;5037498;28;20021;-93
2022/04/20 00:59:28;;;;;;;2.75;1.58;;;14.80;83.50;;;;;;5037702;28;20108;-93
2022/04/20 01:01:55;;;;;;;3.63;1.70;;;14.80;83.50;;;;;;5037740;28;20021;-93
2022/04/20 01:04:20;;;;;;;5.78;1.70;;;14.80;83.50;;;;;;5055666;28;20025;-92
2022/04/20 01:06:49;;;;;;;3.67;1.40;;;14.80;83.60;;;;;;5037848;28;20024;-92
2022/04/20 01:09:14;;;;;;;4.25;1.48;;;14.80;83.60;;;;;;5037544;28;20111;-92
2022/04/20 01:11:41;;;;;;;2.35;1.50;;;14.70;83.50;;;;;;5055306;28;20056;-93
2022/04/20 01:14:07;;;;;;;2.92;1.50;;;14.70;83.50;;;;;;5037459;28;20092;-92
2022/04/20 01:16:32;;;;;;;3.22;1.55;;;14.70;83.50;;;;;;5054353;28;20017;-92
2022/04/20 01:18:59;;;;;;;2.00;1.30;;;14.70;83.50;;;;;;5036770;28;20025;-92
2022/04/20 01:21:25;;;;;;;2.67;1.30;;;14.70;83.60;;;;;;5032907;28;20472;-93
2022/04/20 01:23:51;;;;;;;1.75;1.42;;;14.70;83.50;;;;;;5016834;28;20445;-92
2022/04/20 01:26:17;;;;;;;2.67;1.55;;;14.60;83.50;;;;;;5016833;28;20029;-92
2022/04/20 01:28:44;;;;;;;2.33;1.60;;;14.60;83.50;;;;;;5016582;28;20053;-92
2022/04/20 01:31:15;;;;;;;2.60;1.50;;;14.60;83.40;;;;;;5016525;28;20093;-92
2022/04/20 01:33:44;;;;;;;4.03;1.45;;;14.60;83.40;;;;;;5035160;28;20074;-92
2022/04/20 01:36:13;;;;;;;2.08;1.30;;;14.60;83.30;;;;;;5017528;28;20469;-91
2022/04/20 01:38:39;;;;;;;2.75;1.50;;;14.60;83.50;;;;;;5017622;28;20021;-92
2022/04/20 01:41:05;;;;;;;8.20;1.77;;;14.60;83.50;;;;;;5017526;28;20036;-91
2022/04/20 01:43:32;;;;;;;2.47;1.45;;;14.50;83.30;;;;;;5017566;28;20116;-92
2022/04/20 01:45:58;;;;;;;2.65;1.52;;;14.50;83.30;;;;;;5017453;28;20396;-92
2022/04/20 01:48:24;;;;;;;4.93;1.50;;;14.50;83.30;;;;;;5017363;28;20091;-92
2022/04/20 01:53:33;;;;;;;1.77;1.33;;;14.50;83.20;;;;;;5034438;28;20079;-93
2022/04/20 01:56:00;;;;;;;2.92;1.77;;;14.50;83.30;;;;;;5016470;28;20029;-92
2022/04/20 01:58:27;;;;;;;3.03;1.42;;;14.50;83.40;;;;;;5016448;28;20030;-93
2022/04/20 02:00:53;;;;;;;2.00;1.40;;;14.40;83.20;;;;;;5016235;28;20056;-92
2022/04/20 02:03:18;;;;;;;5.80;1.30;;;14.40;83.20;;;;;;5033842;28;20033;-92
2022/04/20 02:05:44;;;;;;;2.10;1.40;;;14.40;83.20;;;;;;5016206;28;20025;-92
2022/04/20 02:08:10;;;;;;;2.10;1.50;;;14.40;83.20;;;;;;5016211;28;20049;-92
2022/04/20 02:10:36;;;;;;;2.13;1.27;;;14.40;83.90;;;;;;5017000;28;20498;-92
2022/04/20 02:13:02;;;;;;;2.30;1.50;;;14.30;83.10;;;;;;5020206;28;20021;-92
2022/04/20 02:15:28;;;;;;;3.05;1.45;;;14.30;83.10;;;;;;5038819;28;20370;-93
2022/04/20 02:17:54;;;;;;;2.17;1.50;;;14.30;83.20;;;;;;5020978;28;20022;-92
2022/04/20 02:20:20;;;;;;;4.60;1.48;;;14.30;83.20;;;;;;5021085;28;20029;-92
2022/04/20 02:22:45;;;;;;;1.50;0.95;;;14.30;83.20;;;;;;5052946;28;20513;-91
2022/04/20 02:25:11;;;;;;;2.75;1.60;;;14.30;83.10;;;;;;5041413;28;20060;-92
2022/04/20 02:27:37;;;;;;;4.13;1.45;;;14.30;83.10;;;;;;5040632;28;20025;-92
2022/04/20 02:30:04;;;;;;;2.67;1.50;;;14.30;83.20;;;;;;5040312;28;20040;-92
2022/04/20 02:32:30;;;;;;;4.20;1.98;;;14.30;83.10;;;;;;5040654;28;20021;-93
2022/04/20 02:34:55;;;;;;;3.53;1.90;;;14.20;83.10;;;;;;5040589;28;20012;-92
2022/04/20 02:37:22;;;;;;;3.47;1.67;;;14.20;83.20;;;;;;5040530;28;20488;-92
2022/04/20 02:39:48;;;;;;;5.15;1.52;;;14.20;83.00;;;;;;5039914;28;20036;-92
2022/04/20 02:42:15;;;;;;;2.72;1.42;;;14.20;83.00;;;;;;5040529;28;20033;-91
2022/04/20 02:44:42;;;;;;;2.80;1.88;;;14.20;83.00;;;;;;5040617;28;20079;-91
2022/04/20 02:47:08;;;;;;;5.80;1.60;;;14.20;83.00;;;;;;5040596;28;20116;-92
2022/04/20 02:49:35;;;;;;;4.30;1.60;;;14.10;82.90;;;;;;5040417;28;20053;-92
2022/04/20 02:52:01;;;;;;;3.22;1.40;;;14.10;83.00;;;;;;5040682;28;20028;-92
2022/04/20 02:54:27;;;;;;;2.17;1.50;;;14.10;83.00;;;;;;5040238;28;20424;-93
2022/04/20 02:56:53;;;;;;;5.47;1.70;;;14.10;82.90;;;;;;5040616;28;20064;-93
2022/04/20 02:59:19;;;;;;;3.63;1.70;;;14.10;82.90;;;;;;5057726;28;20017;-92
2022/04/20 03:01:44;;;;;;;5.25;1.80;;;14.10;82.80;;;;;;5057940;28;20468;-92
2022/04/20 03:04:11;;;;;;;4.13;2.00;;;14.00;82.80;;;;;;5040369;28;20116;-92
2022/04/20 03:06:37;;;;;;;3.72;1.30;;;14.00;82.80;;;;;;5056887;28;20025;-92
2022/04/20 03:09:03;;;;;;;3.58;1.83;;;14.00;82.90;;;;;;5040193;28;20516;-92
2022/04/20 03:11:29;;;;;;;4.07;1.40;;;14.00;82.90;;;;;;5040075;28;20032;-92
2022/04/20 03:13:56;;;;;;;4.97;1.73;;;14.00;83.60;;;;;;5058026;28;20025;-92
2022/04/20 03:16:22;;;;;;;2.65;1.77;;;14.00;82.80;;;;;;5039061;28;20021;-92
2022/04/20 03:18:48;;;;;;;3.00;1.80;;;13.90;82.80;;;;;;5057652;28;20105;-92
2022/04/20 03:21:14;;;;;;;3.25;1.92;;;13.90;82.80;;;;;;5057578;28;20496;-92
2022/04/20 03:23:40;;;;;;;3.90;1.70;;;13.90;82.70;;;;;;5039956;28;20035;-93
2022/04/20 03:26:06;;;;;;;3.67;1.63;;;13.90;82.70;;;;;;5040274;28;20021;-92
2022/04/20 03:28:32;;;;;;;5.32;1.73;;;13.90;82.80;;;;;;5039603;28;20111;-92
2022/04/20 03:30:59;;;;;;;6.32;1.80;;;13.90;82.90;;;;;;5039185;28;20029;-92
2022/04/20 03:33:25;;;;;;;3.22;1.75;;;13.80;82.70;;;;;;5039912;28;20096;-93
2022/04/20 03:35:51;;;;;;;2.97;1.80;;;13.80;82.70;;;;;;5040174;28;20036;-92
2022/04/20 03:38:16;;;;;;;2.47;1.80;;;13.80;82.70;;;;;;5039727;28;20036;-92
2022/04/20 03:40:42;;;;;;;4.07;1.80;;;13.80;82.60;;;;;;5039609;28;20032;-93
2022/04/20 03:43:08;;;;;;;6.05;1.83;;;13.80;82.60;;;;;;5040014;28;20025;-92
2022/04/20 03:45:34;;;;;;;4.60;1.60;;;13.80;82.70;;;;;;5039422;28;20025;-92
2022/04/20 03:47:59;;;;;;;3.50;1.70;;;13.70;82.60;;;;;;5039204;28;20047;-92
2022/04/20 03:50:25;;;;;;;6.22;1.95;;;13.70;82.50;;;;;;5038360;28;20115;-93
2022/04/20 03:52:51;;;;;;;4.50;1.77;;;13.70;82.50;;;;;;5057050;28;20028;-92
2022/04/20 03:55:16;;;;;;;3.90;1.60;;;13.70;82.60;;;;;;5039275;28;20448;-92
2022/04/20 03:57:42;;;;;;;5.15;1.83;;;13.70;83.30;;;;;;5039115;28;20070;-92
2022/04/20 04:00:09;;;;;;;8.25;1.67;;;13.70;82.50;;;;;;5038822;28;20392;-92
2022/04/20 04:02:35;;;;;;;2.25;1.88;;;13.70;82.50;;;;;;5039696;28;20048;-92
2022/04/20 04:05:00;;;;;;;4.07;1.80;;;13.70;82.50;;;;;;5038297;28;20028;-91
2022/04/20 04:07:26;;;;;;;5.25;1.90;;;13.70;82.50;;;;;;5037871;28;20025;-91
2022/04/20 04:09:52;;;;;;;5.63;1.90;;;13.60;82.50;;;;;;5037858;28;20031;-92
2022/04/20 04:12:22;;;;;;;5.25;1.73;;;13.60;82.60;;;;;;5055608;28;20036;-92
2022/04/20 04:14:48;;;;;;;4.47;1.63;;;13.60;82.50;;;;;;5055660;28;20020;-92
2022/04/20 04:17:14;;;;;;;3.60;1.90;;;13.60;82.50;;;;;;5037678;28;20025;-92
2022/04/20 04:19:40;;;;;;;2.40;1.45;;;13.60;82.40;;;;;;5037619;28;20025;-92
2022/04/20 04:22:06;;;;;;;5.53;1.80;;;13.50;82.40;;;;;;5029530;28;20448;-92
2022/04/20 04:24:34;;;;;;;4.38;1.77;;;13.60;82.50;;;;;;5018247;28;20485;-91
2022/04/20 04:27:01;;;;;;;2.80;1.77;;;13.50;82.50;;;;;;5017747;28;20030;-92
2022/04/20 04:29:27;;;;;;;3.05;1.58;;;13.50;82.50;;;;;;5018688;28;20116;-91
2022/04/20 04:31:53;;;;;;;2.65;1.63;;;13.50;82.50;;;;;;5018869;28;20110;-92
2022/04/20 04:34:19;;;;;;;3.08;1.90;;;13.50;82.50;;;;;;5017671;28;20481;-92
2022/04/20 04:36:45;;;;;;;5.00;1.92;;;13.50;82.50;;;;;;5018770;28;20028;-92
2022/04/20 04:39:10;;;;;;;5.70;1.98;;;13.50;82.50;;;;;;5018311;28;20437;-92
2022/04/20 04:41:36;;;;;;;3.20;1.88;;;13.50;82.60;;;;;;5018421;28;20033;-92
2022/04/20 04:44:02;;;;;;;2.05;1.60;;;13.40;82.60;;;;;;5018283;28;20025;-92
2022/04/20 04:49:11;;;;;;;3.95;2.28;;;13.40;82.60;;;;;;5035775;28;20199;-91
2022/04/20 04:51:37;;;;;;;4.88;2.10;;;13.40;82.60;;;;;;5018210;28;20060;-92
2022/04/20 04:54:03;;;;;;;7.05;2.50;;;13.40;82.50;;;;;;5018564;28;20079;-92
2022/04/20 04:56:28;;;;;;;2.97;2.03;;;13.40;82.50;;;;;;5018712;28;20028;-92
2022/04/20 04:58:54;;;;;;;4.43;1.85;;;13.40;82.50;;;;;;5017687;28;20053;-92
2022/04/20 05:01:20;;;;;;;4.78;2.00;;;13.40;82.60;;;;;;5018091;28;20068;-92
2022/04/20 05:03:46;;;;;;;3.25;1.92;;;13.40;82.70;;;;;;5017364;28;20116;-92
2022/04/20 05:06:11;;;;;;;4.18;1.95;;;13.30;82.60;;;;;;5018255;28;20029;-92
2022/04/20 05:08:37;;;;;;;3.78;2.03;;;13.30;82.70;;;;;;5018693;28;20048;-92
2022/04/20 05:11:03;;;;;;;4.20;2.05;;;13.30;82.60;;;;;;5017923;28;20346;-92
2022/04/20 05:13:28;;;;;;;4.72;2.17;;;13.30;82.70;;;;;;5017966;28;20033;-92
2022/04/20 05:15:54;;;;;;;4.93;2.13;;;13.30;82.60;;;;;;5034647;28;20488;-92
2022/04/20 05:18:20;;;;;;;5.70;1.98;;;13.30;82.60;;;;;;5017710;28;20025;-92
2022/04/20 05:20:45;;;;;;;3.20;2.03;;;13.30;82.80;;;;;;5017629;28;20108;-92
2022/04/20 05:23:11;;;;;;;4.00;1.95;;;13.30;82.80;;;;;;5017554;28;20064;-92
2022/04/20 05:25:36;;;;;;;5.53;1.95;;;13.30;82.80;;;;;;5017425;28;20077;-92
2022/04/20 05:28:02;;;;;;;4.55;2.47;;;13.20;82.70;;;;;;5017874;28;20392;-92
2022/04/20 05:30:28;;;;;;;3.15;2.00;;;13.20;82.80;;;;;;5017632;28;20021;-92
2022/04/20 05:32:54;;;;;;;4.22;2.00;;;13.20;82.90;;;;;;5035440;28;20010;-92
2022/04/20 05:35:20;;;;;;;4.50;2.35;;;13.20;82.90;;;;;;5035487;28;20538;-92
2022/04/20 05:43:14;;;;;;;4.90;1.75;;;13.20;83.80;;;;;;5035538;28;20039;-92
2022/04/20 05:45:40;;;;;;;3.88;2.08;;;13.30;83.10;;;;;;5016560;28;20115;-92
2022/04/20 05:48:05;;;;;;;5.13;1.90;;;13.20;83.20;;;;;;5017456;28;20448;-90
2022/04/20 05:50:31;;;;;;;4.30;2.10;;;13.20;83.30;;;;;;5017564;28;20116;-92
2022/04/20 05:52:57;;;;;;;4.30;1.95;;;13.30;83.40;;;;;;5035013;28;20022;-91
2022/04/20 05:55:22;;;;;;;3.55;1.88;;;13.30;83.40;;;;;;5017021;28;20033;-92
2022/04/20 05:57:48;;;;;;;2.95;1.90;;;13.30;83.50;;;;;;5017500;28;20037;-92
2022/04/20 06:00:15;;;;;;;4.18;2.38;;;13.20;83.50;;;;;;5017325;28;20069;-92
2022/04/20 06:02:40;;;;;;;2.72;1.80;;;13.30;83.60;;;;;;5017026;28;20033;-92
2022/04/20 06:05:07;;;;;;;3.15;2.10;;;13.30;83.70;;;;;;5034524;28;20070;-91
2022/04/20 06:07:34;;;;;;;3.40;2.00;;;13.30;83.80;;;;;;5017147;28;20545;-91
2022/04/20 06:09:59;;;;;;;3.28;1.88;;;13.30;83.80;;;;;;5016872;28;20029;-92
2022/04/20 06:12:25;;;;;;;4.47;2.20;;;13.30;83.90;;;;;;5016811;28;20029;-93
2022/04/20 06:14:51;;;;;;;3.00;1.70;;;13.30;83.90;;;;;;5017042;28;20053;-92
2022/04/20 06:17:17;;;;;;;3.50;1.70;;;13.30;84.00;;;;;;5017178;28;20033;-92
2022/04/20 06:19:42;;;;;;;6.18;2.20;;;13.20;84.00;;;;;;5033934;28;20030;-90
2022/04/20 06:22:08;;;;;;;7.30;2.47;;;13.30;84.10;;;;;;5016984;28;20056;-92
2022/04/20 06:24:34;;;;;;;3.50;1.80;;;13.30;84.30;;;;;;5035162;28;20014;-92
2022/04/20 06:27:00;;;;;;;3.40;1.90;;;13.30;84.30;;;;;;5018059;28;20017;-92
2022/04/20 06:29:26;;;;;;;4.38;1.70;;;13.30;84.30;;;;;;5016103;28;20113;-92
2022/04/20 06:31:51;;;;;;;3.00;1.90;;;13.30;84.40;;;;;;5034359;28;20049;-92
2022/04/20 06:34:18;;;;;;;3.20;1.88;;;13.30;84.60;;;;;;5017040;28;20017;-92
2022/04/20 06:36:44;;;;;;;3.72;2.08;;;13.30;84.70;;;;;;5016969;28;20026;-92
2022/04/20 06:39:09;;;;;;;4.13;2.10;;;13.30;84.70;;;;;;5035061;28;20428;-92
2022/04/20 06:41:35;;;;;;;3.97;2.13;;;13.30;84.80;;;;;;5016700;28;20034;-92
2022/04/20 06:44:01;;;;;;;3.53;1.92;;;13.30;84.90;;;;;;5017038;28;20029;-92
2022/04/20 06:46:27;;;;;;;2.22;1.80;;;13.30;84.90;;;;;;5016274;28;20367;-92
2022/04/20 06:48:52;;;;;;;4.28;1.60;;;13.40;85.10;;;;;;5015800;28;20143;-92
2022/04/20 06:51:18;;;;;;;2.70;1.67;;;13.40;85.10;;;;;;5015692;28;20026;-91
2022/04/20 06:58:31;;;;;;;3.17;1.77;;;13.40;85.20;;;;;;5033845;28;20079;-93
2022/04/20 06:59:13;;;;;;;2.65;1.80;;;13.40;85.30;;;;;;5036339;28;20076;-91
2022/04/20 07:01:39;;;;;;;2.60;1.83;;;13.40;85.20;;;;;;5019936;28;20033;-90
2022/04/20 07:04:05;;;;;;;3.15;1.98;;;13.40;85.00;;;;;;5019507;28;20026;-91
2022/04/20 07:06:32;;;;;;;4.50;2.03;;;13.40;84.60;;;;;;5020660;28;20053;-90
2022/04/20 07:08:58;;;;;;;3.22;1.65;;;13.40;84.50;;;;;;5019560;28;20074;-92
2022/04/20 07:11:24;;;;;;;3.45;1.77;;;13.40;84.80;;;;;;5037225;28;20025;-90
2022/04/20 07:13:51;;;;;;;4.03;1.58;;;13.50;85.00;;;;;;5019657;28;20036;-90
2022/04/20 07:16:16;;;;;;;2.90;1.70;;;13.50;84.80;;;;;;5019703;28;20080;-90
2022/04/20 07:18:42;;;;;;;3.10;1.65;;;13.50;84.60;;;;;;5019442;28;20025;-91
2022/04/20 07:21:08;;;;;;;2.67;1.50;;;13.60;84.50;;;;;;5020211;28;20029;-91
2022/04/20 07:23:33;;;;;;;3.45;1.70;;;13.60;84.50;;;;;;5039753;28;20029;-91
2022/04/20 07:25:59;;;;;;;4.90;1.58;;;13.60;84.20;;;;;;5039273;28;20059;-91
2022/04/20 07:28:25;;;;;;;3.15;1.50;;;13.60;84.20;;;;;;5038601;28;20029;-92
2022/04/20 07:30:51;;;;;;;3.00;1.58;;;13.70;84.10;;;;;;5038296;28;20123;-91
2022/04/20 07:33:16;;;;;;;2.20;1.48;;;13.70;84.00;;;;;;5038264;28;20032;-91
2022/04/20 07:35:46;;;;;;;2.40;1.40;;;13.70;83.90;;;;;;5038368;28;20443;-91
2022/04/20 07:38:12;;;;;;;2.90;1.65;;;13.80;83.90;;;;;;5038397;28;20021;-92
2022/04/20 07:40:38;;;;;;;3.67;1.60;;;13.80;83.80;;;;;;5038404;28;20507;-92
2022/04/20 07:43:04;;;;;;;1.95;1.40;;;13.80;83.70;;;;;;5056916;28;20029;-90
2022/04/20 07:45:30;;;;;;;2.38;1.50;;;13.80;83.60;;;;;;5037826;28;20120;-88
2022/04/20 07:47:57;;;;;;;2.75;1.48;;;13.90;83.50;;;;;;5037606;28;20067;-88
2022/04/20 07:50:24;;;;;;;4.40;1.33;;;13.90;83.40;;;;;;5055405;28;20101;-88
2022/04/20 07:52:58;;;;;;;2.67;1.60;;;13.90;83.40;;;;;;5037658;28;20094;-87
2022/04/20 07:55:32;;;;;;;2.95;1.80;;;14.00;83.20;;;;;;5037479;28;20340;-87
2022/04/20 07:58:00;;;;;;;2.65;1.52;;;14.00;83.20;;;;;;5037000;28;20036;-86
2022/04/20 08:00:26;;;;;;;3.15;1.50;;;14.00;83.20;;;;;;5037939;28;20035;-87
2022/04/20 08:03:11;;;;;;;2.63;1.40;;;14.00;83.10;;;;;;5037124;28;20029;-87
2022/04/20 08:05:38;;;;;;;3.28;1.35;;;14.10;83.10;;;;;;5038826;28;20025;-93
2022/04/20 08:08:04;;;;;;;2.28;1.52;;;14.10;82.80;;;;;;5039150;28;20029;-92
2022/04/20 08:10:30;;;;;;;3.72;1.73;;;14.10;82.70;;;;;;5037882;28;20369;-92
2022/04/20 08:12:55;;;;;;;1.63;1.20;;;14.10;82.70;;;;;;5038811;28;20062;-93
2022/04/20 08:15:21;;;;;;;2.42;1.25;;;14.10;82.70;;;;;;5039161;28;20021;-94
2022/04/20 08:17:47;;;;;;;2.25;1.35;;;14.20;82.60;;;;;;5039059;28;20024;-93
2022/04/20 08:20:12;;;;;;;2.08;1.50;;;14.20;82.60;;;;;;5038850;28;20066;-92
2022/04/20 08:22:43;;;;;;;3.20;1.30;;;14.20;82.60;;;;;;5037860;28;20504;-93
2022/04/20 08:25:10;;;;;;;2.83;1.35;;;14.20;82.60;;;;;;5056320;28;20158;-93
2022/04/20 08:27:37;;;;;;;2.15;1.30;;;14.30;82.80;;;;;;5038960;28;20033;-92
2022/04/20 08:30:04;;;;;;;3.00;1.60;;;14.30;82.70;;;;;;5038326;28;20025;-88
2022/04/20 08:32:30;;;;;;;1.63;1.30;;;14.30;82.70;;;;;;5021318;28;20037;-91
2022/04/20 08:34:56;;;;;;;3.55;1.50;;;14.30;82.80;;;;;;5037986;28;20024;-90
2022/04/20 08:37:22;;;;;;;3.70;1.50;;;14.30;82.80;;;;;;5055769;28;20017;-90
2022/04/20 08:39:48;;;;;;;2.60;1.30;;;14.40;82.70;;;;;;5038406;28;20025;-91
2022/04/20 08:42:17;;;;;;;2.40;1.67;;;14.40;82.80;;;;;;5038603;28;20017;-92
2022/04/20 08:44:47;;;;;;;3.45;1.38;;;14.40;82.60;;;;;;5039122;28;20028;-93
2022/04/20 08:47:21;;;;;;;5.40;1.50;;;14.50;82.80;;;;;;5038675;28;20025;-91
2022/04/20 08:49:51;;;;;;;4.15;1.95;;;14.50;82.70;;;;;;5038113;28;20484;-93
2022/04/20 08:52:38;;;;;;;1.60;1.30;;;14.50;82.70;;;;;;5056545;28;20047;-93
2022/04/20 08:55:13;;;;;;;2.33;1.40;;;14.50;83.50;;;;;;5038763;28;20059;-94
2022/04/20 08:57:40;;;;;;;3.95;1.63;;;14.50;82.60;;;;;;5056003;28;20024;-94
2022/04/20 09:00:11;;;;;;;3.10;1.40;;;14.50;82.60;;;;;;5056311;28;20017;-94
2022/04/20 09:02:37;;;;;;;2.92;1.40;;;14.60;82.40;;;;;;5038188;28;20112;-93
2022/04/20 09:05:04;;;;;;;2.15;1.40;;;14.60;82.00;;;;;;5056054;28;20179;-92
2022/04/20 09:07:33;;;;;;;2.90;1.50;;;14.60;82.20;;;;;;5038625;28;20037;-93
2022/04/20 09:10:03;;;;;;;3.38;1.60;;;14.60;81.80;;;;;;5037706;28;20028;-94
2022/04/20 09:12:29;;;;;;;4.63;1.50;;;14.60;81.90;;;;;;5038766;28;20462;-94
2022/04/20 09:14:56;;;;;;;2.58;1.50;;;14.70;82.00;;;;;;5037835;28;20033;-93
2022/04/20 09:17:24;;;;;;;3.42;1.30;;;14.70;81.90;;;;;;5037966;28;20017;-92
2022/04/20 09:19:55;;;;;;;4.03;1.30;;;14.70;81.90;;;;;;5037976;28;20029;-93
2022/04/20 09:22:29;;;;;;;3.03;1.42;;;14.70;81.80;;;;;;5037636;28;20128;-95
2022/04/20 09:25:11;;;;;;;2.33;1.40;;;14.70;81.80;;;;;;5056014;28;20475;-94
2022/04/20 09:27:42;;;;;;;1.88;1.40;;;14.80;81.50;;;;;;5038519;28;20028;-94
2022/04/20 09:30:16;;;;;;;1.75;1.25;;;14.80;81.10;;;;;;5055584;28;20075;-94
2022/04/20 09:32:43;;;;;;;3.25;1.30;;;14.80;81.00;;;;;;5055208;28;20017;-92
2022/04/20 09:35:20;;;;;;;3.33;1.30;;;14.90;81.00;;;;;;5037138;28;20366;-94
2022/04/20 09:38:03;;;;;;;3.45;1.27;;;14.90;81.60;;;;;;5037269;28;20017;-94
2022/04/20 09:40:34;;;;;;;2.50;1.45;;;14.90;80.80;;;;;;5038424;28;20025;-94
2022/04/20 09:43:01;;;;;;;1.85;1.20;;;14.90;80.30;;;;;;5037076;28;20029;-93
2022/04/20 09:45:27;;;;;;;6.95;1.33;;;14.90;80.50;;;;;;5037126;28;20542;-94
2022/04/20 09:50:37;;;;;;;2.05;1.33;;;15.00;80.30;;;;;;5055510;28;20052;-93
2022/04/20 09:53:07;;;;;;;2.47;1.48;;;15.00;79.80;;;;;;5036254;28;20063;-94
2022/04/20 09:55:37;;;;;;;2.28;1.45;;;15.00;79.40;;;;;;5036411;28;20080;-93
2022/04/20 09:58:17;;;;;;;2.47;1.50;;;15.10;79.60;;;;;;5036253;28;20025;-94
2022/04/20 10:00:48;;;;;;;3.92;1.50;;;15.10;79.80;;;;;;5036453;28;20404;-93
2022/04/20 10:03:24;;;;;;;2.08;1.17;;;15.10;79.40;;;;;;5036358;28;20032;-93
2022/04/20 10:05:51;;;;;;;1.90;1.33;;;15.10;79.50;;;;;;5036365;28;20052;-94
2022/04/20 10:08:20;;;;;;;2.90;1.30;;;15.20;79.70;;;;;;5037477;28;20033;-94
2022/04/20 10:10:51;;;;;;;2.85;1.35;;;15.20;79.50;;;;;;5036856;28;20036;-93
2022/04/20 10:13:17;;;;;;;2.13;1.58;;;15.20;79.40;;;;;;5037376;28;20472;-94
2022/04/20 10:16:06;;;;;;;3.38;1.05;;;15.20;79.10;;;;;;5036965;28;20025;-94
2022/04/20 10:18:37;;;;;;;3.20;1.38;;;15.30;79.20;;;;;;5055024;28;20472;-95
2022/04/20 10:21:04;;;;;;;3.20;1.48;;;15.30;79.00;;;;;;5037081;28;20029;-93
2022/04/20 10:23:30;;;;;;;5.75;1.63;;;15.30;78.40;;;;;;5037075;28;20037;-93
2022/04/20 10:25:58;;;;;;;2.67;1.27;;;15.30;79.10;;;;;;5055025;28;20075;-94
2022/04/20 10:28:36;;;;;;;3.88;1.40;;;15.30;79.00;;;;;;5035127;28;20029;-88
2022/04/20 10:31:20;;;;;;;3.80;1.48;;;15.30;79.10;;;;;;5035421;28;20029;-89
2022/04/20 10:33:47;;;;;;;3.40;1.58;;;15.30;79.20;;;;;;5037992;28;20159;-88
2022/04/20 10:36:16;;;;;;;3.75;1.50;;;15.30;79.50;;;;;;5038651;28;20029;-87
2022/04/20 10:38:44;;;;;;;3.25;1.52;;;15.30;79.30;;;;;;5038802;28;20025;-89
2022/04/20 10:41:18;;;;;;;3.25;1.55;;;15.30;79.20;;;;;;5057175;28;20025;-88
2022/04/20 10:43:44;;;;;;;2.03;1.50;;;15.40;79.10;;;;;;5056767;28;20029;-88
2022/04/20 10:46:16;;;;;;;4.25;1.40;;;15.40;79.60;;;;;;5038558;28;20025;-89
2022/04/20 10:48:49;;;;;;;3.95;1.60;;;15.40;79.70;;;;;;5038821;28;20545;-89
2022/04/20 10:51:17;;;;;;;3.55;1.75;;;15.40;79.50;;;;;;5056694;28;20025;-89
2022/04/20 10:53:45;;;;;;;2.38;1.48;;;15.50;79.60;;;;;;5038497;28;20028;-88
2022/04/20 10:56:12;;;;;;;3.25;1.50;;;15.50;79.00;;;;;;5038382;28;20029;-88
2022/04/20 10:58:49;;;;;;;2.65;1.50;;;15.50;78.80;;;;;;5056209;28;20388;-87
2022/04/20 11:01:15;;;;;;;2.63;1.33;;;15.50;79.10;;;;;;5038078;28;20021;-86
2022/04/20 11:03:55;;;;;;;2.63;1.38;;;15.50;79.20;;;;;;5038491;28;20120;-88
2022/04/20 11:06:25;;;;;;;3.13;1.45;;;15.60;79.00;;;;;;5038513;28;20031;-95
2022/04/20 11:08:51;;;;;;;2.05;1.20;;;15.60;78.90;;;;;;5040675;28;20484;-94
2022/04/20 11:20:05;;;;;;;1.88;1.15;;;15.70;77.90;;;;;;5058335;28;20051;-95
2022/04/20 11:22:31;;;;;;;1.67;1.17;;;15.70;78.40;;;;;;5039895;28;20056;-94
2022/04/20 11:25:02;;;;;;;2.28;1.33;;;15.70;78.60;;;;;;5040402;28;20036;-95
2022/04/20 11:27:35;;;;;;;1.52;1.30;;;15.70;78.50;;;;;;5039646;28;20063;-94
2022/04/20 11:30:05;;;;;;;3.08;1.60;;;15.70;78.20;;;;;;5039123;28;20071;-95
2022/04/20 11:32:31;;;;;;;3.38;1.20;;;15.70;78.40;;;;;;5040046;28;20028;-95
2022/04/20 11:35:06;;;;;;;2.45;1.55;;;15.70;78.60;;;;;;5040012;28;20041;-94
2022/04/20 11:37:33;;;;;;;3.08;1.40;;;15.80;78.50;;;;;;5039194;28;20473;-94
2022/04/20 11:40:00;;;;;;;2.58;1.75;;;15.80;78.50;;;;;;5039758;28;20021;-94
2022/04/20 11:42:26;;;;;;;3.50;1.38;;;15.80;78.40;;;;;;5040081;28;20362;-93
2022/04/20 11:44:52;;;;;;;1.80;1.40;;;15.80;78.40;;;;;;5057556;28;20062;-94
2022/04/20 11:47:18;;;;;;;3.95;1.35;;;15.90;78.00;;;;;;5039456;28;20060;-94
2022/04/20 11:49:48;;;;;;;4.50;1.70;;;15.90;78.10;;;;;;5039156;28;20075;-94
2022/04/20 11:52:17;;;;;;;3.00;1.38;;;15.90;77.80;;;;;;5039702;28;20024;-95
2022/04/20 11:54:45;;;;;;;3.17;1.50;;;15.90;78.10;;;;;;5038656;28;20470;-93
2022/04/20 11:57:12;;;;;;;4.55;1.40;;;15.90;78.30;;;;;;5056815;28;20021;-94
2022/04/20 11:59:46;;;;;;;3.10;1.55;;;15.90;77.70;;;;;;5039189;28;20045;-94
2022/04/20 12:02:13;;;;;;;3.33;1.58;;;15.90;78.00;;;;;;5039459;28;20061;-95
2022/04/20 12:04:39;;;;;;;2.30;1.35;;;15.90;77.70;;;;;;5039397;28;20039;-94
2022/04/20 12:07:05;;;;;;;3.15;1.23;;;15.90;77.70;;;;;;5039302;28;20031;-94
2022/04/20 12:09:35;;;;;;;3.05;1.50;;;15.90;77.90;;;;;;5039290;28;20536;-94
2022/04/20 12:12:02;;;;;;;3.33;1.27;;;15.90;77.80;;;;;;5039171;28;20025;-95
2022/04/20 12:14:33;;;;;;;1.90;1.30;;;15.90;77.80;;;;;;5039337;28;20025;-93
2022/04/20 12:17:05;;;;;;;4.32;1.48;;;16.00;77.90;;;;;;5038923;28;20473;-93
2022/04/20 12:19:32;;;;;;;1.60;1.00;;;16.00;77.90;;;;;;5038855;28;20048;-94
2022/04/20 12:22:11;;;;;;;3.63;1.50;;;16.00;77.60;;;;;;5038485;28;20080;-94
2022/04/20 12:24:38;;;;;;;2.30;1.20;;;16.10;76.90;;;;;;5038853;28;20051;-95
2022/04/20 12:27:15;;;;;;;2.10;1.20;;;16.10;77.10;;;;;;5039086;28;20032;-93
2022/04/20 12:29:40;;;;;;;2.28;1.20;;;16.30;77.60;;;;;;5038774;28;20021;-93
2022/04/20 12:32:07;;;;;;;2.67;1.30;;;16.30;76.70;;;;;;5038768;28;20021;-93
2022/04/20 12:34:33;;;;;;;3.05;1.30;;;16.30;76.50;;;;;;5038030;28;20476;-93
2022/04/20 12:37:05;;;;;;;1.52;1.05;;;16.30;76.30;;;;;;5038569;28;20040;-93
2022/04/20 12:39:34;;;;;;;3.90;1.27;;;16.40;76.40;;;;;;5039153;28;20108;-92
2022/04/20 12:42:07;;;;;;;3.78;1.25;;;16.50;76.00;;;;;;5037837;28;20032;-92
2022/04/20 12:44:35;;;;;;;2.05;1.17;;;16.60;75.50;;;;;;5038814;28;20044;-93
2022/04/20 12:47:16;;;;;;;1.88;1.17;;;16.80;75.50;;;;;;5037676;28;20091;-94
2022/04/20 12:49:48;;;;;;;2.88;1.42;;;16.90;74.80;;;;;;5038103;28;20025;-94
2022/04/20 12:52:22;;;;;;;2.10;1.40;;;17.10;74.40;;;;;;5037449;28;20028;-93
2022/04/20 12:54:54;;;;;;;1.77;1.48;;;17.10;74.20;;;;;;5037280;28;20028;-94
2022/04/20 13:03:02;;;;;;;2.53;1.27;;;17.50;74.00;;;;;;5055636;28;20036;-94
2022/04/20 13:05:35;;;;;;;4.28;1.60;;;17.50;73.10;;;;;;5037341;28;20028;-95
2022/04/20 13:08:01;;;;;;;2.00;1.03;;;17.50;72.90;;;;;;5037069;28;20037;-94
2022/04/20 13:10:30;;;;;;;1.70;1.08;;;17.60;73.00;;;;;;5037619;28;20286;-93
2022/04/20 13:12:56;;;;;;;2.75;1.30;;;17.60;72.80;;;;;;5037371;28;20025;-94
2022/04/20 13:15:23;;;;;;;1.85;1.00;;;17.60;73.00;;;;;;5037337;28;20480;-95
2022/04/20 13:17:51;;;;;;;4.47;1.23;;;17.60;72.60;;;;;;5037714;28;20436;-94
2022/04/20 13:20:17;;;;;;;5.00;1.30;;;17.70;72.20;;;;;;5038757;28;20407;-93